Time;durP1;ratioP1;P1;durP2;ratioP2;P2;SDS_P1;SDS_P2;PMS_P1;PMS_P2;Temp;Humidity;BMP_temperature;BMP_pressure;BME280_temperature;BME280_humidity;BME280_pressure;Samples;Min_cycle;Max_cycle;Signal;HPM_P1;HPM_P2
2022/03/02 00:00:33;;;;;;;3.35;1.35;;;20.60;38.60;;;;;;5043531;28;20142;-54
2022/03/02 00:03:00;;;;;;;1.92;1.75;;;20.60;38.60;;;;;;5044462;28;20048;-54
2022/03/02 00:05:28;;;;;;;1.80;1.70;;;20.60;39.20;;;;;;5032009;28;20071;-57
2022/03/02 00:07:55;;;;;;;1.08;1.05;;;20.60;38.60;;;;;;5047495;28;20044;-53
2022/03/02 00:10:23;;;;;;;2.03;1.30;;;20.60;38.60;;;;;;5044990;28;20052;-56
2022/03/02 00:12:50;;;;;;;1.73;1.08;;;20.60;38.50;;;;;;5043433;28;20053;-56
2022/03/02 00:15:18;;;;;;;1.17;1.10;;;20.60;38.50;;;;;;5042968;28;20068;-54
2022/03/02 00:17:47;;;;;;;1.73;0.75;;;20.60;38.50;;;;;;5043604;28;20040;-57
2022/03/02 00:20:14;;;;;;;1.88;0.98;;;20.60;38.60;;;;;;5046316;28;20052;-57
2022/03/02 00:22:42;;;;;;;0.88;0.88;;;20.60;38.60;;;;;;5044889;28;20045;-57
2022/03/02 00:25:09;;;;;;;2.88;1.52;;;20.60;38.60;;;;;;5035989;28;20068;-55
2022/03/02 00:27:36;;;;;;;3.85;1.40;;;20.60;38.60;;;;;;5040113;28;20052;-53
2022/03/02 00:30:05;;;;;;;1.38;1.27;;;20.60;38.60;;;;;;5042833;28;20049;-57
2022/03/02 00:32:32;;;;;;;1.30;0.80;;;20.60;38.60;;;;;;5043657;28;20096;-58
2022/03/02 00:35:00;;;;;;;2.10;1.10;;;20.60;38.50;;;;;;5047021;28;20037;-57
2022/03/02 00:37:27;;;;;;;1.75;0.95;;;20.60;38.60;;;;;;5043702;28;20052;-56
2022/03/02 00:39:54;;;;;;;2.58;1.10;;;20.60;38.50;;;;;;5036273;28;20133;-54
2022/03/02 00:42:22;;;;;;;1.90;0.80;;;20.50;38.50;;;;;;5037970;28;20120;-52
2022/03/02 00:44:49;;;;;;;1.63;1.40;;;20.60;38.50;;;;;;5042037;28;20041;-56
2022/03/02 00:47:16;;;;;;;2.70;1.83;;;20.50;38.40;;;;;;5045689;28;20044;-54
2022/03/02 00:49:44;;;;;;;2.65;1.02;;;20.60;38.50;;;;;;5045190;28;20037;-52
2022/03/02 00:52:14;;;;;;;1.65;1.42;;;20.50;38.40;;;;;;5044024;28;20041;-57
2022/03/02 00:54:41;;;;;;;2.22;2.00;;;20.50;38.40;;;;;;5042847;28;20037;-56
2022/03/02 00:57:08;;;;;;;1.10;1.00;;;20.50;38.40;;;;;;5045281;28;20055;-59
2022/03/02 00:59:35;;;;;;;1.45;1.27;;;20.50;38.40;;;;;;5042900;28;20500;-55
2022/03/02 01:02:02;;;;;;;0.95;0.80;;;20.50;38.40;;;;;;5031391;28;20045;-55
2022/03/02 01:04:30;;;;;;;0.98;0.93;;;20.50;38.40;;;;;;5043943;28;20071;-56
2022/03/02 01:06:57;;;;;;;2.10;1.33;;;20.50;38.40;;;;;;5042184;28;20067;-56
2022/03/02 01:09:25;;;;;;;1.20;1.05;;;20.50;38.40;;;;;;5039592;28;20049;-53
2022/03/02 01:11:53;;;;;;;2.47;1.55;;;20.50;38.40;;;;;;5035490;28;20575;-57
2022/03/02 01:14:20;;;;;;;2.08;1.25;;;20.50;38.40;;;;;;5032890;28;20049;-58
2022/03/02 01:16:47;;;;;;;1.73;1.55;;;20.50;38.40;;;;;;5030843;28;20048;-56
2022/03/02 01:19:14;;;;;;;3.17;1.27;;;20.50;38.40;;;;;;5046480;28;20417;-53
2022/03/02 01:21:42;;;;;;;1.50;1.40;;;20.50;38.30;;;;;;5037796;28;20042;-55
2022/03/02 01:24:09;;;;;;;1.85;1.63;;;20.50;38.30;;;;;;5035342;28;20040;-57
2022/03/02 01:26:37;;;;;;;1.48;1.38;;;20.50;38.30;;;;;;5042300;28;20048;-54
2022/03/02 01:29:05;;;;;;;3.00;1.60;;;20.50;38.30;;;;;;5030907;28;20163;-58
2022/03/02 01:31:32;;;;;;;4.05;0.85;;;20.50;38.30;;;;;;5044113;28;20053;-57
2022/03/02 01:34:00;;;;;;;2.55;1.08;;;20.50;38.30;;;;;;5041894;28;20045;-55
2022/03/02 01:36:27;;;;;;;3.00;2.20;;;20.50;38.30;;;;;;5045220;28;20052;-51
2022/03/02 01:38:54;;;;;;;1.60;1.23;;;20.50;38.30;;;;;;5040477;28;20053;-54
2022/03/02 01:41:23;;;;;;;2.13;1.70;;;20.50;38.30;;;;;;5046859;28;20124;-53
2022/03/02 01:43:54;;;;;;;2.63;2.42;;;20.50;38.30;;;;;;5029757;28;20068;-55
2022/03/02 01:46:22;;;;;;;1.23;0.60;;;20.50;38.30;;;;;;5043024;28;20049;-55
2022/03/02 01:48:50;;;;;;;1.25;1.17;;;20.50;38.30;;;;;;5041654;28;20037;-57
2022/03/02 01:51:18;;;;;;;1.67;1.33;;;20.50;38.30;;;;;;5040485;28;20700;-58
2022/03/02 01:53:45;;;;;;;1.52;1.35;;;20.50;38.30;;;;;;5031858;28;20414;-58
2022/03/02 01:56:13;;;;;;;1.25;1.20;;;20.50;38.30;;;;;;5046594;28;20049;-57
2022/03/02 01:58:40;;;;;;;2.75;1.42;;;20.50;38.20;;;;;;5030327;28;20069;-57
2022/03/02 02:01:09;;;;;;;2.97;1.67;;;20.50;38.20;;;;;;5033631;28;20049;-56
2022/03/02 02:03:36;;;;;;;1.63;1.35;;;20.50;38.20;;;;;;5037811;28;20041;-56
2022/03/02 02:06:03;;;;;;;1.40;1.30;;;20.50;38.20;;;;;;5041560;28;20060;-57
2022/03/02 02:08:31;;;;;;;1.77;1.67;;;20.40;38.20;;;;;;5042409;28;20033;-56
2022/03/02 02:11:00;;;;;;;1.25;1.15;;;20.50;38.20;;;;;;5045246;28;20045;-58
2022/03/02 02:13:30;;;;;;;1.98;1.45;;;20.40;38.10;;;;;;5042504;28;20041;-56
2022/03/02 02:15:57;;;;;;;1.35;1.05;;;20.40;38.10;;;;;;5041383;28;20086;-58
2022/03/02 02:18:26;;;;;;;0.93;0.93;;;20.50;38.20;;;;;;5041207;28;20056;-55
2022/03/02 02:20:54;;;;;;;1.55;1.00;;;20.40;38.10;;;;;;5043467;28;20037;-58
2022/03/02 02:23:21;;;;;;;1.75;1.65;;;20.50;38.20;;;;;;5030270;28;20033;-56
2022/03/02 02:25:48;;;;;;;1.40;1.40;;;20.50;38.20;;;;;;5043067;28;20037;-58
2022/03/02 02:28:22;;;;;;;1.50;1.40;;;20.40;38.10;;;;;;5031499;28;20088;-56
2022/03/02 02:30:50;;;;;;;1.65;0.77;;;20.40;38.10;;;;;;5043843;28;20044;-57
2022/03/02 02:33:17;;;;;;;1.42;1.17;;;20.40;38.10;;;;;;5041261;28;20041;-57
2022/03/02 02:35:45;;;;;;;0.95;0.95;;;20.40;38.10;;;;;;5042871;28;20045;-57
2022/03/02 02:38:13;;;;;;;3.00;1.45;;;20.40;38.10;;;;;;5029812;28;20040;-58
2022/03/02 02:40:42;;;;;;;2.88;1.75;;;20.40;38.10;;;;;;5042676;28;20041;-57
2022/03/02 02:43:09;;;;;;;1.77;1.63;;;20.40;38.10;;;;;;5041286;28;20037;-51
2022/03/02 02:45:36;;;;;;;4.72;1.98;;;20.40;38.10;;;;;;5041108;28;20465;-53
2022/03/02 02:48:04;;;;;;;2.63;1.77;;;20.40;38.10;;;;;;5045169;28;20045;-57
2022/03/02 02:50:34;;;;;;;2.03;1.20;;;20.40;38.10;;;;;;5045960;28;20053;-51
2022/03/02 02:53:03;;;;;;;2.35;1.17;;;20.40;38.10;;;;;;5049428;28;20045;-56
2022/03/02 02:55:32;;;;;;;2.05;1.35;;;20.40;38.10;;;;;;5046415;28;20490;-56
2022/03/02 02:58:00;;;;;;;1.27;1.15;;;20.40;38.10;;;;;;5039040;28;20045;-55
2022/03/02 03:00:29;;;;;;;4.28;1.15;;;20.40;38.10;;;;;;5037910;28;20061;-56
2022/03/02 03:02:57;;;;;;;4.22;1.25;;;20.40;38.10;;;;;;5037677;28;20052;-52
2022/03/02 03:05:26;;;;;;;2.35;0.88;;;20.30;38.10;;;;;;5033723;28;20041;-55
2022/03/02 03:07:54;;;;;;;2.80;2.00;;;20.30;38.10;;;;;;5048037;28;20126;-53
2022/03/02 03:10:22;;;;;;;2.10;1.23;;;20.30;38.10;;;;;;5045996;28;20044;-54
2022/03/02 03:12:51;;;;;;;3.13;1.67;;;20.30;38.10;;;;;;5045194;28;20559;-57
2022/03/02 03:15:19;;;;;;;1.33;1.25;;;20.40;38.10;;;;;;5044772;28;20135;-56
2022/03/02 03:17:47;;;;;;;1.95;1.77;;;20.30;38.00;;;;;;5048032;28;20037;-55
2022/03/02 03:20:16;;;;;;;2.08;1.90;;;20.30;38.00;;;;;;5047269;28;20037;-57
2022/03/02 03:22:43;;;;;;;2.05;1.30;;;20.30;38.00;;;;;;5046718;28;20055;-56
2022/03/02 03:25:12;;;;;;;1.42;1.30;;;20.30;38.00;;;;;;5045335;28;20056;-55
2022/03/02 03:27:40;;;;;;;0.82;0.82;;;20.30;38.00;;;;;;5044815;28;20406;-56
2022/03/02 03:30:14;;;;;;;1.75;1.13;;;20.30;38.00;;;;;;5044306;28;20063;-55
2022/03/02 03:32:41;;;;;;;1.80;1.65;;;20.30;38.00;;;;;;5048544;28;20056;-57
2022/03/02 03:35:10;;;;;;;1.17;1.00;;;20.30;38.10;;;;;;5033028;28;20088;-55
2022/03/02 03:37:38;;;;;;;3.08;1.48;;;20.30;38.00;;;;;;5045611;28;20049;-57
2022/03/02 03:40:07;;;;;;;3.28;1.08;;;20.30;38.00;;;;;;5037334;28;20045;-53
2022/03/02 03:42:34;;;;;;;1.20;1.10;;;20.30;38.00;;;;;;5040863;28;20076;-55
2022/03/02 03:45:01;;;;;;;2.78;1.42;;;20.30;38.10;;;;;;5044327;28;20047;-57
2022/03/02 03:47:30;;;;;;;2.58;1.63;;;20.30;38.10;;;;;;5048682;28;20056;-57
2022/03/02 03:49:57;;;;;;;1.48;1.02;;;20.30;38.10;;;;;;5032446;28;20601;-57
2022/03/02 03:52:24;;;;;;;1.08;0.85;;;20.30;38.10;;;;;;5045469;28;20049;-57
2022/03/02 03:54:51;;;;;;;2.38;1.65;;;20.30;38.10;;;;;;5043873;28;20044;-56
2022/03/02 03:57:18;;;;;;;1.38;1.08;;;20.30;38.00;;;;;;5042163;28;20053;-57
2022/03/02 03:59:45;;;;;;;1.75;1.65;;;20.30;38.00;;;;;;5033253;28;20123;-57
2022/03/02 04:02:12;;;;;;;1.33;1.23;;;20.20;38.00;;;;;;5048523;28;20414;-58
2022/03/02 04:04:41;;;;;;;1.17;1.05;;;20.30;38.00;;;;;;5032779;28;20041;-56
2022/03/02 04:07:08;;;;;;;1.10;1.10;;;20.30;38.00;;;;;;5043658;28;20053;-56
2022/03/02 04:09:35;;;;;;;1.63;1.52;;;20.30;38.00;;;;;;5043844;28;20041;-56
2022/03/02 04:12:03;;;;;;;1.35;1.25;;;20.30;38.00;;;;;;5043738;28;20052;-53
2022/03/02 04:14:30;;;;;;;2.50;1.05;;;20.20;38.00;;;;;;5059905;28;20049;-55
2022/03/02 04:16:57;;;;;;;2.63;1.25;;;20.20;37.90;;;;;;5047317;28;20073;-54
2022/03/02 04:19:24;;;;;;;2.63;1.42;;;20.20;37.90;;;;;;5034618;28;20053;-56
2022/03/02 04:21:53;;;;;;;1.63;1.27;;;20.30;38.60;;;;;;5041311;28;20041;-57
2022/03/02 04:24:22;;;;;;;1.58;1.27;;;20.20;37.90;;;;;;5043962;28;20043;-57
2022/03/02 04:26:49;;;;;;;2.67;1.02;;;20.20;38.00;;;;;;5043091;28;20619;-54
2022/03/02 04:29:16;;;;;;;1.92;1.75;;;20.20;38.00;;;;;;5046538;28;20044;-56
2022/03/02 04:31:43;;;;;;;1.30;1.30;;;20.30;38.00;;;;;;5045390;28;20073;-55
2022/03/02 04:34:11;;;;;;;1.10;1.10;;;20.30;38.00;;;;;;5042763;28;20123;-57
2022/03/02 04:36:38;;;;;;;1.45;1.35;;;20.20;38.00;;;;;;5042388;28;20045;-59
2022/03/02 04:39:06;;;;;;;2.25;1.77;;;20.20;37.90;;;;;;5041889;28;20052;-56
2022/03/02 04:41:33;;;;;;;2.33;1.30;;;20.30;37.90;;;;;;5031905;28;20072;-56
2022/03/02 04:44:00;;;;;;;1.30;1.20;;;20.30;37.90;;;;;;5047240;28;20037;-59
2022/03/02 04:46:27;;;;;;;1.90;1.10;;;20.30;37.90;;;;;;5044170;28;20067;-58
2022/03/02 04:48:54;;;;;;;1.90;0.98;;;20.20;37.90;;;;;;5042709;28;20045;-57
2022/03/02 04:51:21;;;;;;;1.58;1.48;;;20.20;37.90;;;;;;5042240;28;20041;-61
2022/03/02 04:53:50;;;;;;;1.05;0.88;;;20.20;37.90;;;;;;5042608;28;20043;-57
2022/03/02 04:56:19;;;;;;;1.63;1.52;;;20.30;38.00;;;;;;5047665;28;20467;-51
2022/03/02 04:58:46;;;;;;;1.40;1.23;;;20.20;37.90;;;;;;5031351;28;20041;-53
2022/03/02 05:01:13;;;;;;;1.27;1.17;;;20.20;38.50;;;;;;5043915;28;20053;-57
2022/03/02 05:03:40;;;;;;;2.88;1.75;;;20.20;37.90;;;;;;5042501;28;20132;-57
2022/03/02 05:06:07;;;;;;;1.42;1.33;;;20.20;37.90;;;;;;5041495;28;20059;-57
2022/03/02 05:08:34;;;;;;;1.20;1.10;;;20.20;37.90;;;;;;5035226;28;20045;-57
2022/03/02 05:11:01;;;;;;;2.65;1.13;;;20.20;37.90;;;;;;5030667;28;20044;-58
2022/03/02 05:13:29;;;;;;;1.98;1.38;;;20.20;37.90;;;;;;5043660;28;20045;-58
2022/03/02 05:15:56;;;;;;;0.90;0.90;;;20.20;37.90;;;;;;5035821;28;20046;-57
2022/03/02 05:18:23;;;;;;;1.52;1.40;;;20.20;37.90;;;;;;5037396;28;20048;-56
2022/03/02 05:20:50;;;;;;;1.25;1.13;;;20.20;37.80;;;;;;5044598;28;20041;-58
2022/03/02 05:23:18;;;;;;;1.38;1.08;;;20.20;37.80;;;;;;5038935;28;20037;-57
2022/03/02 05:25:45;;;;;;;1.15;1.05;;;20.20;37.80;;;;;;5044354;28;20056;-57
2022/03/02 05:28:12;;;;;;;2.47;1.55;;;20.20;37.90;;;;;;5043052;28;20597;-56
2022/03/02 05:30:40;;;;;;;2.22;1.75;;;20.20;37.80;;;;;;5038148;28;20720;-56
2022/03/02 05:33:07;;;;;;;1.85;1.45;;;20.20;37.90;;;;;;5034665;28;20052;-57
2022/03/02 05:35:34;;;;;;;1.90;1.05;;;20.20;37.80;;;;;;5045761;28;20127;-57
2022/03/02 05:38:01;;;;;;;1.52;1.42;;;20.20;37.80;;;;;;5030085;28;20029;-57
2022/03/02 05:40:28;;;;;;;1.38;1.27;;;20.20;37.80;;;;;;5043318;28;20517;-54
2022/03/02 05:42:57;;;;;;;0.93;0.93;;;20.20;37.90;;;;;;5041790;28;20052;-57
2022/03/02 05:45:24;;;;;;;1.67;1.02;;;20.20;37.90;;;;;;5039944;28;20063;-58
2022/03/02 05:47:52;;;;;;;1.48;1.33;;;20.20;37.90;;;;;;5043024;28;20041;-56
2022/03/02 05:50:19;;;;;;;3.50;0.88;;;20.10;37.80;;;;;;5030283;28;20119;-58
2022/03/02 05:52:46;;;;;;;6.18;2.97;;;20.20;37.90;;;;;;5042820;28;20064;-56
2022/03/02 05:55:13;;;;;;;0.98;0.82;;;20.20;37.90;;;;;;5034332;28;20045;-55
2022/03/02 05:57:40;;;;;;;2.00;1.30;;;20.20;37.90;;;;;;5038865;28;20045;-57
2022/03/02 06:00:09;;;;;;;1.42;1.33;;;20.20;37.80;;;;;;5041625;28;20041;-56
2022/03/02 06:02:36;;;;;;;1.75;1.17;;;20.20;37.80;;;;;;5042051;28;20060;-58
2022/03/02 06:05:05;;;;;;;0.73;0.60;;;20.10;37.80;;;;;;5029315;28;20124;-55
2022/03/02 06:07:32;;;;;;;4.65;1.27;;;20.10;37.80;;;;;;5043451;28;20409;-54
2022/03/02 06:09:59;;;;;;;3.03;1.00;;;20.20;37.80;;;;;;5041729;28;20044;-57
2022/03/02 06:12:27;;;;;;;1.70;1.50;;;20.20;37.90;;;;;;5041823;28;20048;-58
2022/03/02 06:14:54;;;;;;;1.35;0.98;;;20.20;37.90;;;;;;5040692;28;20482;-57
2022/03/02 06:17:21;;;;;;;0.80;0.80;;;20.10;37.80;;;;;;5044005;28;20045;-57
2022/03/02 06:19:49;;;;;;;2.83;1.45;;;20.20;37.90;;;;;;5044055;28;20056;-54
2022/03/02 06:22:20;;;;;;;3.58;1.08;;;20.10;37.80;;;;;;5035444;28;20037;-57
2022/03/02 06:24:48;;;;;;;1.92;1.50;;;20.10;37.80;;;;;;5035585;28;20442;-56
2022/03/02 06:27:20;;;;;;;1.10;1.02;;;20.10;37.80;;;;;;5035391;28;20510;-57
2022/03/02 06:29:47;;;;;;;2.97;1.58;;;20.10;37.80;;;;;;5041449;28;20049;-57
2022/03/02 06:32:14;;;;;;;1.73;1.08;;;20.10;37.90;;;;;;5045771;28;20041;-58
2022/03/02 06:34:41;;;;;;;1.52;1.17;;;20.10;37.90;;;;;;5030226;28;20056;-58
2022/03/02 06:37:08;;;;;;;1.05;0.68;;;20.10;37.90;;;;;;5041838;28;20045;-57
2022/03/02 06:39:37;;;;;;;1.48;1.10;;;20.10;37.80;;;;;;5044250;28;20055;-58
2022/03/02 06:42:09;;;;;;;1.50;1.10;;;20.10;37.80;;;;;;5041419;28;20029;-56
2022/03/02 06:44:45;;;;;;;1.20;1.00;;;20.10;37.80;;;;;;5041782;28;20048;-58
2022/03/02 06:47:18;;;;;;;1.52;0.98;;;20.10;37.80;;;;;;5030010;28;20120;-56
2022/03/02 06:49:58;;;;;;;1.63;1.13;;;20.10;37.80;;;;;;5043511;28;20047;-58
2022/03/02 06:52:32;;;;;;;1.30;1.20;;;20.10;37.80;;;;;;5031541;28;20451;-56
2022/03/02 06:55:04;;;;;;;1.00;0.90;;;20.10;37.80;;;;;;5034058;28;20042;-57
2022/03/02 06:57:32;;;;;;;2.15;0.98;;;20.10;37.80;;;;;;5037179;28;20053;-52
2022/03/02 07:00:06;;;;;;;1.10;1.10;;;20.10;37.80;;;;;;5041315;28;20794;-56
2022/03/02 07:02:40;;;;;;;1.33;1.08;;;20.10;37.90;;;;;;5041638;28;20049;-57
2022/03/02 07:05:09;;;;;;;1.33;1.17;;;20.10;37.90;;;;;;5030007;28;20040;-57
2022/03/02 07:07:36;;;;;;;0.98;0.85;;;20.00;37.80;;;;;;5042685;28;20067;-57
2022/03/02 07:10:06;;;;;;;2.28;1.42;;;20.10;37.90;;;;;;5034385;28;20453;-55
2022/03/02 07:12:33;;;;;;;1.20;1.00;;;20.10;37.90;;;;;;5033993;28;20055;-54
2022/03/02 07:15:01;;;;;;;1.58;1.20;;;20.10;37.80;;;;;;5032748;28;20510;-56
2022/03/02 07:17:32;;;;;;;1.08;0.98;;;20.10;37.80;;;;;;5042027;28;20914;-56
2022/03/02 07:19:59;;;;;;;1.75;1.38;;;20.10;37.80;;;;;;5044744;28;20041;-57
2022/03/02 07:22:32;;;;;;;1.67;1.00;;;20.10;37.80;;;;;;5042283;28;20042;-54
2022/03/02 07:25:03;;;;;;;1.15;1.15;;;20.10;37.80;;;;;;5033936;28;20051;-57
2022/03/02 07:27:32;;;;;;;1.00;0.88;;;20.10;37.80;;;;;;5037065;28;20045;-56
2022/03/02 07:30:00;;;;;;;1.98;1.60;;;20.10;37.80;;;;;;5040973;28;20436;-59
2022/03/02 07:32:33;;;;;;;1.48;0.90;;;20.10;37.80;;;;;;5046311;28;20045;-55
2022/03/02 07:35:03;;;;;;;2.42;1.42;;;20.10;37.70;;;;;;5039630;28;20043;-57
2022/03/02 07:37:31;;;;;;;1.65;1.55;;;20.10;37.70;;;;;;5044321;28;20071;-55
2022/03/02 07:39:59;;;;;;;1.88;1.77;;;20.10;37.70;;;;;;5037643;28;20041;-56
2022/03/02 07:42:26;;;;;;;1.35;0.85;;;20.20;37.80;;;;;;5037393;28;20045;-57
2022/03/02 07:44:56;;;;;;;1.65;1.42;;;20.10;37.70;;;;;;5035351;28;20044;-60
2022/03/02 07:47:24;;;;;;;1.08;0.93;;;20.10;37.70;;;;;;5046430;28;20040;-57
2022/03/02 07:49:52;;;;;;;3.25;1.45;;;20.20;37.70;;;;;;5062189;28;20069;-58
2022/03/02 07:52:22;;;;;;;1.30;1.20;;;20.20;37.70;;;;;;5036152;28;20092;-57
2022/03/02 07:54:54;;;;;;;1.65;1.55;;;20.20;37.70;;;;;;5037055;28;20052;-59
2022/03/02 07:57:23;;;;;;;1.50;1.40;;;20.20;37.70;;;;;;5039002;28;20041;-57
2022/03/02 07:59:52;;;;;;;1.92;1.75;;;20.20;37.60;;;;;;5046568;28;20037;-58
2022/03/02 08:02:24;;;;;;;3.70;1.98;;;20.20;37.60;;;;;;5032680;28;20083;-57
2022/03/02 08:04:53;;;;;;;2.47;1.83;;;20.20;37.60;;;;;;5046515;28;20037;-56
2022/03/02 08:07:20;;;;;;;3.15;1.25;;;20.30;37.60;;;;;;5045546;28;20048;-58
2022/03/02 08:09:48;;;;;;;2.72;1.50;;;20.20;37.50;;;;;;5038701;28;20058;-59
2022/03/02 08:12:20;;;;;;;1.85;1.38;;;20.30;37.50;;;;;;5036990;28;20051;-58
2022/03/02 08:14:48;;;;;;;3.03;1.10;;;20.30;37.50;;;;;;5037074;28;20080;-58
2022/03/02 08:17:16;;;;;;;3.45;1.65;;;20.30;37.50;;;;;;5047222;28;20037;-55
2022/03/02 08:19:46;;;;;;;2.47;1.70;;;20.30;37.50;;;;;;5045559;28;20048;-58
2022/03/02 08:22:15;;;;;;;1.83;1.25;;;20.30;37.50;;;;;;5036310;28;20115;-58
2022/03/02 08:24:47;;;;;;;2.30;2.08;;;20.30;37.40;;;;;;5041181;28;20094;-59
2022/03/02 08:27:15;;;;;;;2.15;1.55;;;20.40;37.50;;;;;;5043453;28;20224;-54
2022/03/02 08:29:46;;;;;;;2.35;1.80;;;20.30;37.30;;;;;;5047496;28;20056;-58
2022/03/02 08:32:16;;;;;;;3.70;1.23;;;20.40;37.40;;;;;;5047818;28;20044;-56
2022/03/02 08:34:45;;;;;;;2.00;1.90;;;20.40;37.40;;;;;;5032148;28;20041;-58
2022/03/02 08:37:14;;;;;;;2.45;1.40;;;20.40;37.30;;;;;;5044725;28;20048;-57
2022/03/02 08:39:41;;;;;;;2.20;1.45;;;20.40;37.30;;;;;;5041415;28;20086;-56
2022/03/02 08:42:09;;;;;;;1.80;1.40;;;20.40;37.30;;;;;;5043131;28;20060;-58
2022/03/02 08:44:36;;;;;;;1.40;1.30;;;20.40;37.20;;;;;;5046805;28;20045;-56
2022/03/02 08:47:03;;;;;;;4.68;1.65;;;20.50;37.20;;;;;;5047883;28;20052;-56
2022/03/02 08:49:32;;;;;;;3.53;1.55;;;20.50;37.20;;;;;;5044443;28;20111;-59
2022/03/02 08:52:02;;;;;;;4.65;2.25;;;20.50;37.20;;;;;;5036665;28;20056;-56
2022/03/02 08:54:35;;;;;;;2.60;1.20;;;20.50;37.10;;;;;;5038696;28;20037;-59
2022/03/02 08:57:04;;;;;;;3.92;2.13;;;20.60;37.70;;;;;;5042973;28;20048;-56
2022/03/02 08:59:34;;;;;;;1.77;1.65;;;20.60;37.10;;;;;;5047105;28;20120;-56
2022/03/02 09:02:05;;;;;;;1.92;1.70;;;20.60;37.10;;;;;;5031353;28;20048;-52
2022/03/02 09:04:35;;;;;;;2.70;1.75;;;20.60;37.00;;;;;;5044373;28;20146;-55
2022/03/02 09:07:04;;;;;;;3.22;1.95;;;20.60;37.00;;;;;;5043279;28;20496;-56
2022/03/02 09:09:32;;;;;;;3.38;2.03;;;20.60;36.90;;;;;;5046958;28;20120;-56
2022/03/02 09:11:59;;;;;;;4.30;1.83;;;20.60;36.90;;;;;;5042290;28;20403;-54
2022/03/02 09:14:26;;;;;;;3.08;1.98;;;20.70;36.90;;;;;;5044773;28;20044;-53
2022/03/02 09:16:54;;;;;;;3.80;2.05;;;20.70;36.90;;;;;;5061502;28;20037;-54
2022/03/02 09:19:21;;;;;;;2.97;2.05;;;20.70;36.80;;;;;;5044223;28;20390;-59
2022/03/02 09:21:49;;;;;;;5.93;2.42;;;20.70;36.80;;;;;;5037214;28;20064;-58
2022/03/02 09:24:18;;;;;;;4.15;2.70;;;20.80;36.80;;;;;;5036515;28;20129;-57
2022/03/02 09:26:47;;;;;;;3.75;2.13;;;20.80;36.80;;;;;;5045053;28;20436;-58
2022/03/02 09:29:17;;;;;;;3.63;2.17;;;20.80;36.70;;;;;;5031438;28;20071;-56
2022/03/02 09:31:50;;;;;;;4.15;2.83;;;20.80;36.70;;;;;;5028377;28;20060;-57
2022/03/02 09:34:21;;;;;;;4.38;2.25;;;20.80;36.70;;;;;;5034397;28;20045;-58
2022/03/02 09:36:48;;;;;;;4.88;2.72;;;20.80;36.60;;;;;;5035196;28;20048;-53
2022/03/02 09:39:17;;;;;;;4.07;2.55;;;20.80;36.60;;;;;;5026252;28;20052;-57
2022/03/02 09:41:49;;;;;;;3.03;2.63;;;20.90;36.70;;;;;;5043884;28;20904;-54
2022/03/02 09:44:20;;;;;;;3.50;2.72;;;20.90;36.60;;;;;;5030767;28;20040;-53
2022/03/02 09:46:51;;;;;;;8.10;3.33;;;20.90;36.60;;;;;;5044721;28;20120;-57
2022/03/02 09:49:22;;;;;;;3.35;2.58;;;20.90;36.50;;;;;;5043250;28;20045;-57
2022/03/02 09:51:53;;;;;;;6.72;2.53;;;20.90;36.50;;;;;;5042160;28;20036;-58
2022/03/02 09:54:24;;;;;;;4.10;3.05;;;20.90;36.50;;;;;;5040640;28;20052;-57
2022/03/02 09:56:51;;;;;;;3.97;2.45;;;20.90;36.50;;;;;;5032099;28;20071;-58
2022/03/02 09:59:19;;;;;;;6.22;2.80;;;20.90;36.50;;;;;;5032832;28;20087;-56
2022/03/02 10:01:48;;;;;;;4.45;2.83;;;20.90;36.40;;;;;;5029322;28;20060;-57
2022/03/02 10:04:22;;;;;;;3.47;2.13;;;20.90;36.40;;;;;;5034409;28;20072;-60
2022/03/02 10:07:26;;;;;;;2.80;2.15;;;20.90;36.30;;;;;;5040505;28;20051;-56
2022/03/02 10:09:51;;;;;;;4.57;3.60;;;21.00;36.40;;;;;;5041184;28;20041;-58
2022/03/02 10:12:20;;;;;;;3.53;2.97;;;21.00;36.30;;;;;;5043974;28;20051;-58
2022/03/02 10:14:49;;;;;;;4.28;2.58;;;21.00;36.30;;;;;;5035671;28;20042;-58
2022/03/02 10:17:20;;;;;;;6.32;3.65;;;21.00;36.30;;;;;;5044029;28;20420;-58
2022/03/02 10:19:53;;;;;;;4.05;2.60;;;21.00;36.30;;;;;;5043149;28;20521;-58
2022/03/02 10:22:34;;;;;;;5.82;3.40;;;21.00;36.20;;;;;;5032094;28;20424;-58
2022/03/02 10:25:07;;;;;;;4.10;2.45;;;21.10;36.30;;;;;;5034840;28;20505;-57
2022/03/02 10:27:36;;;;;;;2.83;1.85;;;21.10;36.20;;;;;;5038133;28;20128;-58
2022/03/02 10:30:07;;;;;;;4.80;2.13;;;21.10;36.20;;;;;;5041633;28;20513;-58
2022/03/02 10:32:35;;;;;;;3.72;1.85;;;21.10;36.10;;;;;;5042615;28;20570;-58
2022/03/02 10:35:06;;;;;;;4.57;2.42;;;21.10;36.10;;;;;;5045700;28;20049;-58
2022/03/02 10:37:38;;;;;;;2.65;2.30;;;21.20;36.10;;;;;;5043276;28;20033;-57
2022/03/02 10:40:11;;;;;;;3.10;1.90;;;21.20;36.10;;;;;;5034322;28;20045;-56
2022/03/02 10:42:41;;;;;;;3.88;3.35;;;21.20;36.10;;;;;;5042852;28;20048;-58
2022/03/02 10:45:18;;;;;;;4.65;2.75;;;21.20;36.00;;;;;;5042164;28;20057;-57
2022/03/02 10:48:08;;;;;;;4.70;3.17;;;21.30;36.00;;;;;;5034102;28;20029;-57
2022/03/02 10:50:40;;;;;;;4.55;3.35;;;21.30;35.80;;;;;;5030163;28;20128;-54
2022/03/02 10:53:13;;;;;;;4.18;2.65;;;21.30;35.70;;;;;;5030285;28;20033;-56
2022/03/02 10:55:43;;;;;;;4.88;2.70;;;21.40;36.30;;;;;;5043022;28;20484;-56
2022/03/02 10:58:14;;;;;;;5.35;2.80;;;21.40;35.70;;;;;;5041781;28;20077;-57
2022/03/02 11:00:42;;;;;;;4.80;3.03;;;21.50;35.60;;;;;;5041520;28;20403;-57
2022/03/02 11:03:09;;;;;;;4.70;3.60;;;21.50;35.60;;;;;;5041270;28;20048;-58
2022/03/02 11:05:37;;;;;;;5.43;3.13;;;21.50;35.50;;;;;;5037632;28;20113;-56
2022/03/02 11:08:05;;;;;;;2.22;1.77;;;21.60;35.50;;;;;;5032346;28;20052;-58
2022/03/02 11:10:33;;;;;;;4.07;2.55;;;21.60;35.40;;;;;;5046574;28;20084;-58
2022/03/02 11:13:10;;;;;;;2.63;1.77;;;21.70;35.40;;;;;;5045280;28;20091;-59
2022/03/02 11:15:48;;;;;;;5.97;3.85;;;21.70;35.40;;;;;;5041674;28;20037;-58
2022/03/02 11:18:17;;;;;;;2.97;2.60;;;21.70;35.30;;;;;;5038738;28;20043;-56
2022/03/02 11:21:02;;;;;;;3.78;1.80;;;21.70;35.30;;;;;;5045043;28;20072;-57
2022/03/02 11:23:35;;;;;;;5.25;3.10;;;21.80;35.20;;;;;;5046334;28;20045;-58
2022/03/02 11:26:08;;;;;;;3.38;2.65;;;21.80;35.20;;;;;;5049404;28;20521;-58
2022/03/02 11:28:37;;;;;;;3.05;2.63;;;21.80;35.10;;;;;;5046891;28;20044;-58
2022/03/02 11:31:07;;;;;;;4.70;3.17;;;21.80;35.10;;;;;;5045701;28;20041;-57
2022/03/02 11:33:35;;;;;;;4.18;2.50;;;21.90;35.10;;;;;;5043324;28;20525;-58
2022/03/02 11:36:09;;;;;;;2.80;2.55;;;21.90;35.00;;;;;;5042866;28;20049;-57
2022/03/02 11:38:39;;;;;;;4.05;2.90;;;21.90;35.00;;;;;;5045223;28;20103;-58
2022/03/02 11:41:06;;;;;;;6.55;1.95;;;22.00;35.00;;;;;;5033388;28;20033;-60
2022/03/02 11:43:36;;;;;;;4.40;2.28;;;22.00;34.90;;;;;;5034955;28;20513;-58
2022/03/02 11:46:05;;;;;;;4.80;2.10;;;22.00;34.90;;;;;;5045306;28;20549;-61
2022/03/02 11:48:34;;;;;;;3.05;2.75;;;22.00;34.80;;;;;;5041142;28;20049;-59
2022/03/02 11:51:03;;;;;;;3.20;2.65;;;22.10;34.80;;;;;;5035905;28;20048;-58
2022/03/02 11:53:32;;;;;;;2.13;1.38;;;22.10;34.70;;;;;;5045687;28;20038;-59
2022/03/02 11:56:01;;;;;;;4.28;2.47;;;22.10;34.70;;;;;;5048233;28;20135;-56
2022/03/02 11:58:29;;;;;;;7.15;1.90;;;22.20;34.70;;;;;;5045756;28;20098;-57
2022/03/02 12:01:07;;;;;;;2.85;1.80;;;22.20;34.60;;;;;;5038250;28;20080;-55
2022/03/02 12:03:37;;;;;;;2.20;2.00;;;22.20;34.50;;;;;;5040530;28;20045;-57
2022/03/02 12:06:10;;;;;;;2.90;2.45;;;22.20;34.50;;;;;;5043680;28;20583;-59
2022/03/02 12:08:37;;;;;;;2.70;1.92;;;22.30;34.50;;;;;;5043162;28;20048;-59
2022/03/02 12:11:10;;;;;;;4.63;2.78;;;22.30;34.50;;;;;;5063657;28;20076;-59
2022/03/02 12:13:37;;;;;;;3.65;2.83;;;22.30;34.40;;;;;;5045812;28;20899;-58
2022/03/02 12:16:04;;;;;;;2.85;2.22;;;22.30;34.30;;;;;;5045020;28;20052;-56
2022/03/02 12:18:39;;;;;;;3.70;2.15;;;22.40;34.40;;;;;;5047992;28;20041;-58
2022/03/02 12:21:06;;;;;;;4.75;2.47;;;22.40;34.40;;;;;;5042708;28;20052;-57
2022/03/02 12:23:35;;;;;;;3.40;2.10;;;22.40;34.30;;;;;;5044892;28;20041;-58
2022/03/02 12:26:04;;;;;;;3.05;2.33;;;22.40;34.30;;;;;;5048195;28;20095;-57
2022/03/02 12:28:31;;;;;;;3.00;1.92;;;22.50;34.30;;;;;;5045146;28;20481;-60
2022/03/02 12:30:59;;;;;;;3.88;2.83;;;22.50;34.20;;;;;;5043602;28;20076;-55
2022/03/02 12:33:26;;;;;;;3.05;2.55;;;22.50;34.20;;;;;;5043776;28;20379;-59
2022/03/02 12:35:54;;;;;;;4.15;2.35;;;22.50;34.10;;;;;;5046163;28;20068;-59
2022/03/02 12:38:21;;;;;;;2.25;1.83;;;22.60;34.10;;;;;;5032741;28;20037;-57
2022/03/02 12:40:49;;;;;;;3.53;2.50;;;22.60;34.10;;;;;;5045984;28;20041;-58
2022/03/02 12:43:18;;;;;;;2.53;2.33;;;22.60;34.10;;;;;;5044545;28;20112;-56
2022/03/02 12:45:48;;;;;;;3.42;2.45;;;22.60;34.10;;;;;;5043329;28;20041;-59
2022/03/02 12:48:17;;;;;;;4.70;3.53;;;22.70;34.10;;;;;;5042292;28;20037;-59
2022/03/02 12:50:46;;;;;;;3.75;1.80;;;22.70;34.10;;;;;;5032501;28;20041;-58
2022/03/02 12:53:15;;;;;;;2.67;2.28;;;22.70;34.10;;;;;;5047972;28;20120;-57
2022/03/02 12:55:42;;;;;;;2.47;2.03;;;22.70;34.10;;;;;;5032496;28;20084;-58